Time;durP1;ratioP1;P1;durP2;ratioP2;P2;SDS_P1;SDS_P2;PMS_P1;PMS_P2;Temp;Humidity;BMP_temperature;BMP_pressure;BME280_temperature;BME280_humidity;BME280_pressure;Samples;Min_cycle;Max_cycle;Signal;HPM_P1;HPM_P2
2021/06/13 00:02:11;;;;;;;7.42;4.25;;;;;;;15.77;96.61;99595.38;1735374;82;21759;-76
2021/06/13 00:05:19;;;;;;;7.45;4.12;;;;;;;15.73;96.88;99589.17;1735509;82;21747;-77
2021/06/13 00:08:24;;;;;;;9.25;4.40;;;;;;;15.72;97.30;99580.60;1735502;82;21363;-77
2021/06/13 00:11:29;;;;;;;7.10;4.62;;;;;;;15.73;97.53;99576.23;1734028;82;21367;-76
2021/06/13 00:14:34;;;;;;;8.03;4.00;;;;;;;15.73;97.65;99574.84;1734386;82;21289;-76
2021/06/13 00:17:39;;;;;;;6.17;4.17;;;;;;;15.75;97.50;99580.13;1734371;82;21359;-76
2021/06/13 00:20:45;;;;;;;9.85;5.58;;;;;;;15.70;96.73;99575.29;1731274;83;21396;-77
2021/06/13 00:23:51;;;;;;;8.73;4.10;;;;;;;15.67;95.77;99574.92;1732549;83;21323;-77
2021/06/13 00:26:57;;;;;;;6.60;4.00;;;;;;;15.64;95.58;99569.86;1732539;83;21898;-77
2021/06/13 00:30:02;;;;;;;9.13;4.33;;;;;;;15.63;96.07;99561.25;1730965;83;21198;-76
2021/06/13 00:33:07;;;;;;;7.17;4.10;;;;;;;15.64;96.38;99558.83;1731140;83;21360;-76
2021/06/13 00:36:14;;;;;;;9.90;3.90;;;;;;;15.64;96.45;99558.83;1731213;83;21265;-77
2021/06/13 00:39:19;;;;;;;6.87;3.95;;;;;;;15.62;96.05;99555.41;1732445;83;21344;-77
2021/06/13 00:42:30;;;;;;;6.05;3.65;;;;;;;15.58;95.29;99546.23;1732427;83;21836;-76
2021/06/13 00:45:35;;;;;;;11.75;3.77;;;;;;;15.57;95.16;99542.31;1731070;83;21347;-77
2021/06/13 00:48:41;;;;;;;8.70;3.75;;;;;;;15.56;95.37;99547.52;1732445;83;21907;-76
2021/06/13 00:51:47;;;;;;;9.43;4.10;;;;;;;15.54;95.29;99549.13;1732536;83;21182;-76
2021/06/13 00:54:53;;;;;;;12.00;4.55;;;;;;;15.50;94.75;99556.17;1732492;83;21376;-76
2021/06/13 00:57:59;;;;;;;8.75;3.70;;;;;;;15.43;93.42;99556.78;1732485;83;21343;-76
2021/06/13 01:01:04;;;;;;;10.78;3.90;;;;;;;15.37;92.61;99559.04;1731103;83;21228;-76
2021/06/13 01:04:10;;;;;;;11.63;4.40;;;;;;;15.27;92.51;99554.04;1732517;83;21199;-76
2021/06/13 01:07:30;;;;;;;12.47;5.08;;;;;;;15.20;93.18;99553.27;1732434;83;21367;-76
2021/06/13 01:10:53;;;;;;;10.25;4.28;;;;;;;15.16;94.34;99547.89;1731708;83;21372;-77
2021/06/13 01:14:31;;;;;;;10.30;4.12;;;;;;;15.16;95.21;99551.19;1732387;83;21313;-77
2021/06/13 01:18:00;;;;;;;12.13;4.47;;;;;;;15.16;95.98;99549.81;1732885;83;21319;-77
2021/06/13 01:21:12;;;;;;;9.03;4.45;;;;;;;15.17;96.58;99540.47;1731659;83;21214;-80
2021/06/13 01:24:25;;;;;;;14.23;5.10;;;;;;;15.14;96.73;99534.87;1710497;83;21198;-77
2021/06/13 01:27:58;;;;;;;11.43;5.17;;;;;;;15.14;96.99;99539.53;1732458;83;21308;-77
2021/06/13 01:31:04;;;;;;;12.10;4.83;;;;;;;15.14;97.23;99535.41;1732817;83;21359;-77
2021/06/13 01:34:14;;;;;;;8.50;4.83;;;;;;;15.11;96.88;99535.34;1732579;83;21320;-77
2021/06/13 01:37:16;;;;;;;8.33;4.65;;;;;;;15.06;96.90;99528.28;1733208;83;21379;-77
2021/06/13 01:40:21;;;;;;;7.47;4.83;;;;;;;15.06;97.35;99533.79;1732203;83;21787;-76
2021/06/13 01:43:30;;;;;;;12.50;4.85;;;;;;;15.07;97.89;99535.47;1732425;83;21319;-77
2021/06/13 01:46:39;;;;;;;15.55;5.28;;;;;;;15.07;97.94;99532.18;1732821;83;21269;-77
2021/06/13 01:49:46;;;;;;;12.00;5.10;;;;;;;15.05;98.00;99521.91;1732743;83;21911;-77
2021/06/13 01:52:55;;;;;;;13.38;5.37;;;;;;;15.08;98.26;99528.35;1728907;82;21842;-77
2021/06/13 01:56:01;;;;;;;11.28;5.60;;;;;;;15.12;98.11;99526.53;1710497;83;21331;-76
2021/06/13 01:59:05;;;;;;;11.25;5.00;;;;;;;15.34;98.70;99538.31;1732650;83;21297;-77
2021/06/13 02:02:12;;;;;;;15.72;4.78;;;;;;;15.68;98.44;99529.74;1731215;83;21347;-77
2021/06/13 02:05:19;;;;;;;8.85;4.83;;;;;;;16.03;97.00;99532.18;1732651;83;21328;-77
2021/06/13 02:08:24;;;;;;;12.47;4.78;;;;;;;16.44;95.53;99525.62;1733205;83;21356;-77
2021/06/13 02:11:32;;;;;;;14.18;4.65;;;;;;;16.83;93.02;99527.82;1733548;83;21167;-77
2021/06/13 02:14:37;;;;;;;18.65;5.35;;;;;;;17.22;90.45;99524.64;1732590;83;21819;-77
2021/06/13 02:17:45;;;;;;;14.47;4.90;;;;;;;17.53;87.76;99527.07;1732641;83;21323;-77
2021/06/13 02:20:53;;;;;;;37.75;11.80;;;;;;;17.80;85.96;99528.00;1729284;81;21264;-77
2021/06/13 02:23:59;;;;;;;100.00;43.08;;;;;;;18.09;84.35;99533.89;1732532;83;21308;-77
2021/06/13 02:27:04;;;;;;;138.62;60.08;;;;;;;18.34;82.17;99525.81;1732494;83;21360;-77
2021/06/13 02:30:14;;;;;;;266.20;116.10;;;;;;;18.54;80.73;99519.86;1731437;83;21921;-77
2021/06/13 02:33:19;;;;;;;192.87;86.08;;;;;;;18.75;79.67;99525.25;1732505;83;21926;-77
2021/06/13 02:36:27;;;;;;;99.10;43.48;;;;;;;19.02;78.52;99533.23;1732949;83;21177;-77
2021/06/13 02:39:32;;;;;;;107.97;48.15;;;;;;;19.25;77.19;99525.86;1732509;83;21313;-77
2021/06/13 02:42:41;;;;;;;84.40;41.55;;;;;;;19.49;76.39;99531.52;1731394;83;21357;-78
2021/06/13 02:45:49;;;;;;;32.23;14.90;;;;;;;19.86;75.44;99532.38;1732448;83;21347;-77
2021/06/13 02:48:47;;;;;;;25.25;7.95;;;;;;;20.20;73.85;99538.66;1732577;83;21372;-77
2021/06/13 02:51:44;;;;;;;14.93;6.30;;;;;;;20.48;72.61;99543.20;1732053;83;22009;-77
2021/06/13 02:54:30;;;;;;;11.43;5.97;;;;;;;20.76;71.48;99541.30;1732647;83;21316;-78
2021/06/13 02:57:37;;;;;;;15.32;4.75;;;;;;;21.02;70.66;99533.48;1732677;83;21257;-77
2021/06/13 03:00:43;;;;;;;10.38;4.20;;;;;;;21.27;69.45;99544.02;1732513;83;21899;-78
2021/06/13 03:03:50;;;;;;;10.75;4.22;;;;;;;21.48;68.79;99543.64;1732783;83;21320;-77
2021/06/13 03:07:01;;;;;;;9.93;4.05;;;;;;;21.71;68.06;99547.15;1732083;83;21276;-77
2021/06/13 03:10:06;;;;;;;5.97;3.90;;;;;;;21.97;67.33;99545.34;1732617;83;21360;-78
2021/06/13 03:13:11;;;;;;;8.90;3.60;;;;;;;22.16;66.25;99540.50;1727770;82;21253;-77
2021/06/13 03:16:17;;;;;;;13.72;4.00;;;;;;;22.28;66.07;99543.60;1731173;83;21327;-77
2021/06/13 03:19:23;;;;;;;10.90;4.05;;;;;;;22.40;65.20;99543.67;1732890;83;21252;-78
2021/06/13 03:22:30;;;;;;;13.18;4.08;;;;;;;22.35;64.96;99541.42;1705354;84;21756;-77
2021/06/13 03:25:37;;;;;;;8.70;3.85;;;;;;;22.15;65.20;99545.76;1726386;83;21203;-77
2021/06/13 03:28:44;;;;;;;9.85;4.08;;;;;;;21.98;66.39;99540.92;1698094;84;21353;-78
2021/06/13 03:31:53;;;;;;;8.28;4.65;;;;;;;22.01;66.70;99536.19;1727135;83;21358;-78
2021/06/13 03:35:00;;;;;;;11.05;3.72;;;;;;;22.11;67.25;99539.58;1698269;84;21199;-77
2021/06/13 03:38:05;;;;;;;10.63;4.17;;;;;;;22.27;67.28;99540.55;1707557;83;21349;-77
2021/06/13 03:41:13;;;;;;;11.00;4.08;;;;;;;22.49;66.99;99539.80;1698353;84;21360;-77
2021/06/13 03:44:18;;;;;;;11.63;4.40;;;;;;;22.72;66.19;99541.23;1726530;83;21916;-78
2021/06/13 03:47:23;;;;;;;13.70;4.47;;;;;;;23.05;65.42;99532.97;1679577;84;21263;-78
2021/06/13 03:50:28;;;;;;;7.78;3.95;;;;;;;23.28;64.98;99537.73;1706009;83;21825;-77
2021/06/13 03:53:46;;;;;;;11.50;4.28;;;;;;;23.42;64.46;99527.68;1697180;84;21391;-77
2021/06/13 03:56:48;;;;;;;8.08;4.28;;;;;;;23.43;64.21;99534.93;1726283;83;21235;-77
2021/06/13 03:59:53;;;;;;;8.98;3.80;;;;;;;23.49;64.35;99532.44;1699267;84;21814;-78
2021/06/13 04:03:00;;;;;;;10.85;4.40;;;;;;;23.50;64.44;99534.11;1707365;83;21202;-78
2021/06/13 04:06:07;;;;;;;14.83;4.55;;;;;;;23.47;64.43;99530.47;1698250;84;21338;-78
2021/06/13 04:09:14;;;;;;;8.28;4.45;;;;;;;23.41;65.11;99536.62;1726361;83;21794;-77
2021/06/13 04:12:25;;;;;;;10.20;4.20;;;;;;;23.38;65.44;99537.72;1707426;83;21167;-78
2021/06/13 04:15:32;;;;;;;11.20;4.83;;;;;;;23.33;65.95;99532.15;1696934;84;21263;-77
2021/06/13 04:18:38;;;;;;;8.43;4.03;;;;;;;23.26;66.66;99528.81;1725160;83;21344;-77
2021/06/13 04:21:45;;;;;;;10.45;3.72;;;;;;;23.26;66.95;99532.44;1706761;82;21769;-78
2021/06/13 04:24:51;;;;;;;8.85;3.92;;;;;;;23.24;67.29;99533.26;1759009;81;21849;-77
2021/06/13 04:27:56;;;;;;;9.05;4.42;;;;;;;23.23;67.29;99538.56;1759092;81;21371;-77
2021/06/13 04:31:15;;;;;;;13.35;5.22;;;;;;;23.20;67.72;99539.14;1758887;81;21303;-77
2021/06/13 04:34:21;;;;;;;9.63;4.40;;;;;;;23.17;68.45;99541.91;1757543;81;21881;-78
2021/06/13 04:37:26;;;;;;;9.33;4.47;;;;;;;23.23;68.37;99544.70;1757524;81;21173;-77
2021/06/13 04:40:32;;;;;;;8.95;4.03;;;;;;;23.37;68.14;99543.03;1759053;81;21315;-78
2021/06/13 04:43:37;;;;;;;10.72;4.50;;;;;;;23.51;68.08;99544.70;1758313;81;21402;-77
2021/06/13 04:46:42;;;;;;;7.45;4.50;;;;;;;23.60;67.62;99535.48;1758827;81;21185;-78
2021/06/13 04:49:48;;;;;;;12.33;4.05;;;;;;;23.71;67.01;99537.73;1757288;81;21327;-77
2021/06/13 04:52:53;;;;;;;10.05;5.00;;;;;;;23.83;67.30;99532.69;1758825;81;21299;-77
2021/06/13 04:56:05;;;;;;;7.97;4.50;;;;;;;23.99;67.35;99540.46;1758993;81;21354;-77
2021/06/13 04:59:10;;;;;;;12.43;4.50;;;;;;;24.18;66.45;99541.55;1757683;81;21250;-77
2021/06/13 05:02:16;;;;;;;9.78;4.78;;;;;;;24.30;66.42;99544.57;1758942;81;21310;-77
2021/06/13 05:05:23;;;;;;;11.30;4.78;;;;;;;24.40;66.29;99545.95;1757674;81;21236;-77
2021/06/13 05:08:31;;;;;;;11.93;4.12;;;;;;;24.58;65.92;99550.07;1757467;81;21295;-77
2021/06/13 05:11:37;;;;;;;12.13;4.65;;;;;;;24.74;65.11;99554.44;1759338;81;21322;-77
2021/06/13 05:14:42;;;;;;;8.25;4.40;;;;;;;24.87;64.64;99552.98;1758171;81;21314;-77
2021/06/13 05:17:48;;;;;;;14.68;5.80;;;;;;;24.95;64.83;99549.59;1759008;81;21192;-77
2021/06/13 05:20:53;;;;;;;11.80;6.30;;;;;;;25.00;63.40;99556.54;1758991;81;21192;-78
2021/06/13 05:24:01;;;;;;;14.55;6.45;;;;;;;25.05;63.50;99557.07;1757508;81;21335;-77
2021/06/13 05:27:07;;;;;;;17.42;7.00;;;;;;;25.13;63.36;99554.53;1759074;81;21314;-78
2021/06/13 05:30:14;;;;;;;19.32;6.90;;;;;;;25.22;62.66;99546.36;1731369;83;21891;-77
2021/06/13 05:33:18;;;;;;;17.70;6.60;;;;;;;25.23;62.20;99547.45;1732662;83;21205;-77
2021/06/13 05:36:24;;;;;;;18.10;7.35;;;;;;;25.26;63.16;99552.18;1731189;83;21217;-77
2021/06/13 05:39:29;;;;;;;16.97;6.67;;;;;;;25.29;61.98;99550.21;1732563;83;21364;-78
2021/06/13 05:42:35;;;;;;;14.40;5.67;;;;;;;25.33;60.14;99553.53;1732669;83;21307;-77
2021/06/13 05:45:41;;;;;;;16.37;5.70;;;;;;;25.34;58.96;99548.20;1732554;83;21312;-77
2021/06/13 05:48:46;;;;;;;16.27;6.22;;;;;;;25.41;59.71;99552.91;1732970;83;21966;-77
2021/06/13 05:51:52;;;;;;;11.78;5.20;;;;;;;25.53;60.91;99551.13;1732562;83;21312;-77
2021/06/13 05:54:58;;;;;;;15.25;5.80;;;;;;;25.65;60.38;99554.38;1731102;83;21308;-77
2021/06/13 05:58:03;;;;;;;13.95;5.47;;;;;;;25.73;58.65;99553.72;1731090;83;21336;-78
2021/06/13 06:01:09;;;;;;;15.40;5.20;;;;;;;25.85;58.75;99548.34;1731188;83;21368;-77
2021/06/13 06:04:15;;;;;;;8.23;4.62;;;;;;;25.99;58.42;99553.52;1732133;83;21333;-77
2021/06/13 06:07:21;;;;;;;10.50;4.75;;;;;;;26.14;57.35;99553.34;1732504;83;21308;-78
2021/06/13 06:10:27;;;;;;;5.53;3.83;;;;;;;26.31;57.13;99558.48;1731094;83;21316;-77
2021/06/13 06:13:33;;;;;;;5.62;2.95;;;;;;;26.48;56.36;99550.43;1732483;83;21308;-77
2021/06/13 06:16:38;;;;;;;6.35;3.20;;;;;;;26.53;53.55;99548.12;1731197;83;21323;-77
2021/06/13 06:19:44;;;;;;;8.95;3.12;;;;;;;26.54;52.92;99548.95;1732118;83;21335;-77
2021/06/13 06:22:49;;;;;;;7.15;3.45;;;;;;;26.58;53.25;99542.45;1732539;83;21328;-78
2021/06/13 06:25:56;;;;;;;10.23;3.77;;;;;;;26.67;53.75;99545.42;1734171;82;21334;-78
2021/06/13 06:29:02;;;;;;;5.40;3.15;;;;;;;26.80;53.77;99541.88;1734951;82;21369;-77
2021/06/13 06:32:08;;;;;;;4.72;3.20;;;;;;;26.97;54.19;99543.59;1735485;82;21299;-77
2021/06/13 06:35:14;;;;;;;7.50;3.15;;;;;;;27.15;54.25;99540.56;1734612;82;21378;-77
2021/06/13 06:38:20;;;;;;;5.40;3.15;;;;;;;27.30;53.30;99542.28;1735354;82;21359;-77
2021/06/13 06:41:25;;;;;;;5.72;3.30;;;;;;;27.28;53.51;99538.09;1735361;82;21184;-77
2021/06/13 06:44:31;;;;;;;5.40;3.22;;;;;;;27.20;53.45;99538.24;1735251;82;21877;-77
2021/06/13 06:47:37;;;;;;;10.75;3.37;;;;;;;27.19;53.93;99531.77;1735408;82;21741;-77
2021/06/13 06:50:43;;;;;;;6.60;3.20;;;;;;;27.17;53.55;99524.23;1734699;82;21252;-77
2021/06/13 06:53:51;;;;;;;9.90;3.02;;;;;;;27.22;53.75;99526.13;1735445;82;21319;-78
2021/06/13 06:56:56;;;;;;;6.62;2.90;;;;;;;27.36;54.09;99530.39;1735302;82;21327;-77
2021/06/13 07:00:02;;;;;;;3.70;2.60;;;;;;;27.51;53.18;99525.91;1735287;82;21311;-78
2021/06/13 07:03:11;;;;;;;7.80;3.35;;;;;;;27.62;52.16;99526.02;1735361;82;21303;-77
2021/06/13 07:06:14;;;;;;;4.72;2.60;;;;;;;27.64;53.15;99518.09;1734354;82;21960;-76
2021/06/13 07:09:20;;;;;;;9.58;2.95;;;;;;;27.72;53.39;99522.22;1735424;82;21318;-77
2021/06/13 07:12:25;;;;;;;9.33;3.33;;;;;;;27.71;52.37;99522.80;1735396;82;21350;-78
2021/06/13 07:15:31;;;;;;;6.00;3.27;;;;;;;27.68;51.95;99519.16;1734939;82;21304;-77
2021/06/13 07:18:38;;;;;;;6.80;2.95;;;;;;;27.68;51.53;99523.37;1735398;82;21192;-77
2021/06/13 07:21:44;;;;;;;4.53;2.95;;;;;;;27.75;50.97;99525.22;1734354;82;21283;-77
2021/06/13 07:24:49;;;;;;;4.12;2.77;;;;;;;27.83;50.03;99526.49;1735683;82;21402;-77
2021/06/13 07:27:54;;;;;;;4.10;2.42;;;;;;;27.75;50.14;99530.01;1735391;82;21185;-77
2021/06/13 07:31:00;;;;;;;7.08;2.87;;;;;;;27.61;49.97;99525.73;1735302;82;21323;-77
2021/06/13 07:34:05;;;;;;;9.20;3.00;;;;;;;27.51;50.38;99532.94;1735144;82;21315;-77
2021/06/13 07:37:12;;;;;;;5.47;3.10;;;;;;;27.56;49.89;99532.84;1733954;82;21894;-78
2021/06/13 07:40:21;;;;;;;6.55;2.70;;;;;;;27.65;49.07;99531.00;1735398;82;21750;-77
2021/06/13 07:43:25;;;;;;;5.83;2.90;;;;;;;27.80;49.87;99527.10;1733952;82;21785;-77
2021/06/13 07:46:31;;;;;;;8.60;3.17;;;;;;;27.99;50.76;99525.05;1734525;82;21347;-77
2021/06/13 07:49:37;;;;;;;3.30;2.60;;;;;;;28.18;49.38;99523.58;1735891;82;21332;-77
2021/06/13 07:52:44;;;;;;;4.00;3.02;;;;;;;28.26;49.79;99524.23;1734063;82;21225;-77
2021/06/13 07:55:50;;;;;;;5.15;3.08;;;;;;;28.30;49.65;99520.80;1735397;82;21344;-77
2021/06/13 07:58:56;;;;;;;4.47;2.47;;;;;;;28.39;49.88;99525.98;1735248;82;21946;-77
2021/06/13 08:02:02;;;;;;;8.08;2.75;;;;;;;28.49;49.10;99521.55;1735310;82;21339;-78
2021/06/13 08:05:10;;;;;;;6.28;2.70;;;;;;;28.56;49.17;99523.38;1735268;82;21319;-77
2021/06/13 08:08:15;;;;;;;7.33;2.47;;;;;;;28.36;48.07;99522.38;1735378;82;21705;-77
2021/06/13 08:11:21;;;;;;;6.75;2.65;;;;;;;28.01;48.89;99519.13;1735495;82;21854;-77
2021/06/13 08:14:26;;;;;;;7.72;2.35;;;;;;;27.69;49.45;99526.44;1735409;82;21201;-78
2021/06/13 08:17:32;;;;;;;4.97;2.92;;;;;;;27.57;49.35;99527.52;1734076;82;21859;-77
2021/06/13 08:20:39;;;;;;;4.67;2.52;;;;;;;27.52;49.69;99524.77;1735272;82;21177;-78
2021/06/13 08:23:46;;;;;;;9.35;2.58;;;;;;;27.60;50.17;99526.88;1735386;82;21331;-78
2021/06/13 08:26:52;;;;;;;7.03;2.25;;;;;;;27.88;50.15;99518.54;1734629;82;21346;-77
2021/06/13 08:29:57;;;;;;;3.37;2.35;;;;;;;28.22;48.48;99522.36;1734949;82;21212;-77
2021/06/13 08:33:03;;;;;;;6.87;2.25;;;;;;;28.43;48.54;99522.81;1736165;82;21625;-78
2021/06/13 08:36:10;;;;;;;4.37;2.05;;;;;;;28.57;46.65;99522.80;1735754;82;21364;-78
2021/06/13 08:39:15;;;;;;;4.05;2.15;;;;;;;28.60;47.11;99531.42;1735805;82;21760;-78
2021/06/13 08:42:21;;;;;;;9.28;2.40;;;;;;;28.61;46.90;99517.64;1734533;82;21181;-78
2021/06/13 08:45:26;;;;;;;4.80;2.08;;;;;;;28.60;47.45;99517.35;1734543;82;21346;-77
2021/06/13 08:48:36;;;;;;;2.72;1.70;;;;;;;28.60;45.15;99520.74;1735950;82;21370;-78
2021/06/13 08:51:45;;;;;;;8.40;2.08;;;;;;;28.53;46.54;99518.37;1736023;82;21846;-78
2021/06/13 08:54:50;;;;;;;4.75;2.20;;;;;;;28.59;45.80;99521.32;1735779;82;21280;-78
2021/06/13 08:57:56;;;;;;;6.37;2.40;;;;;;;28.68;46.08;99512.40;1734439;82;21244;-77
2021/06/13 09:01:01;;;;;;;5.83;2.20;;;;;;;28.68;45.84;99512.97;1736538;82;21343;-77
2021/06/13 09:04:07;;;;;;;4.45;2.10;;;;;;;28.69;46.32;99509.00;1734526;82;21310;-77
2021/06/13 09:07:23;;;;;;;5.05;2.15;;;;;;;28.72;45.47;99514.02;1735355;82;21200;-78
2021/06/13 09:10:35;;;;;;;3.87;1.90;;;;;;;28.56;46.05;99512.13;1723199;82;21188;-77
2021/06/13 09:13:41;;;;;;;2.25;1.80;;;;;;;28.46;45.55;99505.29;1735759;82;21322;-78
2021/06/13 09:16:52;;;;;;;5.58;1.90;;;;;;;28.50;44.56;99503.52;1735800;82;21195;-78
2021/06/13 09:20:18;;;;;;;3.72;1.90;;;;;;;28.59;45.05;99504.44;1736818;82;21751;-77
2021/06/13 09:23:23;;;;;;;5.57;1.83;;;;;;;28.55;44.92;99494.97;1736895;82;21232;-77
2021/06/13 09:26:35;;;;;;;7.37;2.05;;;;;;;28.55;44.92;99494.97;1734445;82;22506;-77
2021/06/13 09:29:58;;;;;;;3.77;1.80;;;;;;;28.51;44.75;99496.73;1732968;83;21340;-77
2021/06/13 09:33:19;;;;;;;8.93;1.90;;;;;;;28.34;44.55;99497.95;1732461;83;21375;-77
2021/06/13 09:36:28;;;;;;;2.72;1.82;;;;;;;28.19;45.63;99483.64;1732372;83;21296;-78
2021/06/13 09:39:34;;;;;;;;;;;;;;;28.19;46.07;99478.02;1733710;83;21367;-78
2021/06/13 09:42:39;;;;;;;4.75;2.17;;;;;;;28.23;45.03;99482.70;1732207;83;20222;-77
2021/06/13 09:45:45;;;;;;;7.42;2.58;;;;;;;28.14;45.91;99476.14;1732455;83;21320;-77
2021/06/13 09:48:58;;;;;;;11.85;2.62;;;;;;;28.06;46.92;99478.84;1731010;83;21233;-78
2021/06/13 09:52:05;;;;;;;3.95;2.10;;;;;;;27.95;47.67;99477.66;1731137;83;21308;-77
2021/06/13 09:55:23;;;;;;;3.52;1.92;;;;;;;27.91;46.87;99477.19;1728733;82;21748;-77
2021/06/13 09:58:29;;;;;;;2.65;1.80;;;;;;;27.95;47.10;99477.66;1733546;83;21174;-77
2021/06/13 10:01:38;;;;;;;2.20;1.92;;;;;;;27.92;45.27;99469.01;1732443;83;21328;-78
2021/06/13 10:04:45;;;;;;;3.90;1.90;;;;;;;27.87;45.15;99466.30;1732651;83;21620;-77
2021/06/13 10:07:51;;;;;;;3.12;1.90;;;;;;;27.81;45.48;99471.73;1732612;83;21898;-77
2021/06/13 10:11:00;;;;;;;2.90;2.00;;;;;;;27.80;45.32;99468.09;1731108;83;21205;-77
2021/06/13 10:14:08;;;;;;;2.62;1.60;;;;;;;27.90;45.25;99459.50;1732528;83;21864;-77
2021/06/13 10:17:14;;;;;;;4.22;1.67;;;;;;;28.02;44.97;99457.55;1728794;82;21323;-78
2021/06/13 10:20:30;;;;;;;3.95;1.95;;;;;;;28.10;44.39;99457.41;1732922;83;21365;-78
2021/06/13 10:23:37;;;;;;;3.17;1.90;;;;;;;28.16;45.02;99455.57;1732277;83;21344;-78
2021/06/13 10:26:45;;;;;;;5.90;1.90;;;;;;;28.18;43.98;99451.03;1731413;83;21975;-77
2021/06/13 10:29:55;;;;;;;3.27;1.70;;;;;;;28.24;44.43;99452.61;1734206;82;21812;-77
2021/06/13 10:33:01;;;;;;;4.87;1.75;;;;;;;28.33;43.19;99444.27;1735561;82;21355;-78
2021/06/13 10:36:07;;;;;;;1.72;1.57;;;;;;;28.40;43.04;99450.31;1735434;82;21190;-77
2021/06/13 10:39:13;;;;;;;2.55;1.52;;;;;;;28.41;42.11;99443.53;1734435;82;21886;-77
2021/06/13 10:42:21;;;;;;;2.33;1.42;;;;;;;28.43;43.07;99441.25;1735418;82;21315;-78
2021/06/13 10:45:28;;;;;;;2.35;1.45;;;;;;;28.41;43.07;99447.75;1735361;82;21567;-78
2021/06/13 10:48:33;;;;;;;4.00;2.02;;;;;;;28.36;42.79;99442.24;1734912;82;21339;-77
2021/06/13 10:51:50;;;;;;;3.52;1.60;;;;;;;28.29;44.13;99453.90;1696857;82;21367;-78
2021/06/13 10:55:04;;;;;;;4.28;2.00;;;;;;;28.28;43.70;99443.80;1734609;82;21220;-77
2021/06/13 10:58:10;;;;;;;3.02;1.75;;;;;;;28.18;44.43;99444.00;1735286;82;21847;-77
2021/06/13 11:01:35;;;;;;;7.62;1.80;;;;;;;28.22;44.21;99445.87;1735304;82;21307;-77
2021/06/13 11:04:53;;;;;;;2.17;1.60;;;;;;;28.25;43.61;99441.61;1735336;82;21355;-77
2021/06/13 11:07:58;;;;;;;3.37;1.70;;;;;;;28.27;43.84;99428.88;1735443;82;21209;-77
2021/06/13 11:10:52;;;;;;;2.17;1.55;;;;;;;28.20;45.21;99436.93;1733841;82;21237;-78
2021/06/13 11:13:57;;;;;;;1.90;1.45;;;;;;;28.22;42.64;99445.04;1735339;82;21871;-78
2021/06/13 11:17:05;;;;;;;6.05;1.82;;;;;;;28.17;42.73;99431.92;1731585;82;21866;-78
2021/06/13 11:20:26;;;;;;;4.22;2.08;;;;;;;28.09;41.82;99436.91;1734217;82;21319;-77
2021/06/13 11:23:40;;;;;;;2.85;1.95;;;;;;;27.92;41.97;99429.67;1735374;82;21325;-77
2021/06/13 11:26:45;;;;;;;3.70;1.95;;;;;;;27.86;42.62;99433.73;1735328;82;21739;-77
2021/06/13 11:30:08;;;;;;;7.42;1.47;;;;;;;27.88;41.86;99432.84;1734427;82;21219;-77
2021/06/13 11:33:11;;;;;;;4.95;1.80;;;;;;;27.87;42.13;99426.39;1735959;82;21303;-77
2021/06/13 11:36:30;;;;;;;3.95;1.82;;;;;;;27.86;42.11;99436.55;1735851;82;21311;-78
2021/06/13 11:39:35;;;;;;;;;;;;;;;27.72;42.11;99436.53;1737842;82;21336;-77
2021/06/13 11:42:40;;;;;;;6.40;1.85;;;;;;;27.70;43.17;99435.39;1735885;82;20694;-77
2021/06/13 11:45:48;;;;;;;2.92;1.95;;;;;;;27.72;42.02;99435.96;1735948;82;21299;-78
2021/06/13 11:48:59;;;;;;;5.03;1.70;;;;;;;27.61;42.06;99430.23;1729167;82;21775;-78
2021/06/13 11:52:06;;;;;;;4.12;1.62;;;;;;;27.58;42.10;99432.84;1734434;82;21822;-77
2021/06/13 11:55:11;;;;;;;2.02;1.50;;;;;;;27.61;42.66;99433.03;1735896;82;21414;-77
2021/06/13 11:58:19;;;;;;;5.80;1.60;;;;;;;27.62;42.91;99436.13;1734625;82;21311;-77
2021/06/13 12:01:35;;;;;;;3.27;1.70;;;;;;;27.63;43.02;99432.17;1735980;82;21299;-78
2021/06/13 12:04:41;;;;;;;2.22;1.50;;;;;;;27.63;43.55;99430.77;1742612;81;21284;-77
2021/06/13 12:07:50;;;;;;;4.62;1.60;;;;;;;27.65;43.77;99427.06;1735990;82;21316;-78
2021/06/13 12:10:56;;;;;;;5.65;1.82;;;;;;;27.67;43.68;99430.98;1734562;82;21212;-78
2021/06/13 12:14:01;;;;;;;3.25;1.90;;;;;;;27.68;44.02;99428.44;1735835;82;21315;-77
2021/06/13 12:17:15;;;;;;;10.55;1.98;;;;;;;27.69;43.52;99431.50;1735954;82;21211;-78
2021/06/13 12:20:22;;;;;;;6.65;1.92;;;;;;;27.69;43.40;99421.66;1735034;82;21818;-78
2021/06/13 12:23:51;;;;;;;5.58;1.85;;;;;;;27.72;43.80;99427.53;1735875;82;21310;-77
2021/06/13 12:30:23;;;;;;;4.80;2.02;;;;;;;27.82;44.12;99420.05;1733769;81;21364;-78
2021/06/13 12:33:28;;;;;;;7.33;2.00;;;;;;;27.74;43.39;99411.19;1732509;83;21249;-77
2021/06/13 12:36:34;;;;;;;3.90;2.02;;;;;;;27.68;42.47;99407.36;1732570;83;21671;-78
2021/06/13 12:39:40;;;;;;;5.30;2.12;;;;;;;27.51;43.92;99412.17;1732297;83;21329;-78
2021/06/13 12:42:47;;;;;;;7.05;2.00;;;;;;;27.39;45.12;99403.44;1732416;83;21182;-78
2021/06/13 12:45:53;;;;;;;3.08;2.00;;;;;;;27.35;43.79;99393.39;1733264;83;21851;-77
2021/06/13 12:49:03;;;;;;;2.87;1.67;;;;;;;27.33;44.11;99393.42;1732399;83;21851;-78
2021/06/13 12:52:22;;;;;;;4.58;1.87;;;;;;;27.33;44.77;99386.41;1732500;83;21367;-77
2021/06/13 12:55:26;;;;;;;3.72;1.90;;;;;;;27.32;44.59;99387.55;1732849;83;22473;-77
2021/06/13 12:58:40;;;;;;;3.70;2.10;;;;;;;27.35;44.74;99375.14;1732436;83;21363;-77
2021/06/13 13:01:43;;;;;;;3.58;2.15;;;;;;;27.41;44.21;99374.47;1731355;83;21198;-77
2021/06/13 13:04:53;;;;;;;2.58;1.87;;;;;;;27.46;44.70;99365.94;1731018;83;21728;-77
2021/06/13 13:07:59;;;;;;;10.78;1.87;;;;;;;27.50;44.64;99372.60;1732749;83;21205;-77
2021/06/13 13:11:08;;;;;;;6.62;2.08;;;;;;;27.48;43.93;99370.12;1731623;83;21280;-77
2021/06/13 13:14:13;;;;;;;3.65;2.15;;;;;;;27.44;43.60;99374.69;1732709;83;21862;-78
2021/06/13 13:17:23;;;;;;;2.98;1.95;;;;;;;27.41;43.74;99378.68;1732517;83;21473;-78
2021/06/13 13:20:36;;;;;;;3.95;2.30;;;;;;;27.33;43.72;99368.16;1710963;83;21324;-78
2021/06/13 13:23:52;;;;;;;2.90;1.95;;;;;;;27.24;43.60;99375.91;1732500;83;21308;-78
2021/06/13 13:27:17;;;;;;;7.50;2.00;;;;;;;27.24;44.03;99375.91;1732155;83;22758;-77
2021/06/13 13:30:41;;;;;;;8.53;2.08;;;;;;;27.26;44.48;99371.38;1731250;83;21240;-78
2021/06/13 13:34:07;;;;;;;3.65;1.87;;;;;;;27.25;44.16;99364.94;1732549;83;21205;-77
2021/06/13 13:37:15;;;;;;;2.95;1.72;;;;;;;27.26;45.07;99369.98;1730973;83;21231;-77
2021/06/13 13:40:21;;;;;;;7.03;1.82;;;;;;;27.30;45.35;99367.39;1732550;83;21214;-77
2021/06/13 13:43:26;;;;;;;6.15;1.60;;;;;;;27.28;44.36;99362.64;1728739;82;21259;-78
2021/06/13 13:46:39;;;;;;;2.62;1.85;;;;;;;27.27;44.40;99366.02;1732575;83;21261;-78
2021/06/13 13:49:46;;;;;;;3.22;1.85;;;;;;;27.25;44.45;99359.33;1732624;83;21720;-77
2021/06/13 13:52:51;;;;;;;3.90;1.50;;;;;;;27.21;45.59;99361.66;1732776;83;21191;-77
2021/06/13 13:56:01;;;;;;;7.08;2.02;;;;;;;27.16;45.54;99365.97;1732503;83;21202;-77
2021/06/13 13:59:06;;;;;;;2.37;1.70;;;;;;;27.08;45.79;99363.83;1732567;83;21376;-78
2021/06/13 14:02:12;;;;;;;8.00;1.92;;;;;;;27.10;45.88;99366.64;1731699;83;21331;-78
2021/06/13 14:05:17;;;;;;;2.47;1.57;;;;;;;27.14;45.42;99361.22;1732533;83;21308;-77
2021/06/13 14:08:22;;;;;;;11.90;1.77;;;;;;;27.22;45.81;99362.74;1732566;83;21308;-78
2021/06/13 14:11:27;;;;;;;5.40;2.58;;;;;;;27.17;47.78;99386.70;1732027;83;21249;-78
2021/06/13 14:14:32;;;;;;;9.95;2.10;;;;;;;26.67;49.44;99370.13;1732492;83;21331;-78
2021/06/13 14:17:38;;;;;;;2.45;1.45;;;;;;;25.85;52.71;99392.88;1732491;83;21360;-77
2021/06/13 14:20:44;;;;;;;2.85;1.60;;;;;;;24.84;51.42;99413.72;1732549;83;21205;-77
2021/06/13 14:23:49;;;;;;;15.23;3.35;;;;;;;24.02;53.61;99422.59;1732591;83;21323;-78
2021/06/13 14:26:58;;;;;;;23.07;4.28;;;;;;;23.29;58.93;99426.41;1732653;83;21839;-77
2021/06/13 14:30:04;;;;;;;5.73;2.70;;;;;;;22.40;60.80;99442.53;1731793;83;21245;-78
2021/06/13 14:33:13;;;;;;;16.90;3.42;;;;;;;21.76;61.15;99440.03;1732009;81;21891;-78
2021/06/13 14:36:18;;;;;;;5.40;3.83;;;;;;;21.15;62.60;99430.72;1732613;83;21311;-77
2021/06/13 14:39:25;;;;;;;8.53;3.62;;;;;;;20.85;66.54;99435.50;1732523;83;21221;-77
2021/06/13 14:42:31;;;;;;;5.65;2.67;;;;;;;20.64;69.10;99417.23;1731194;83;21356;-77
2021/06/13 14:45:36;;;;;;;7.40;2.80;;;;;;;20.56;69.69;99413.57;1731378;83;21257;-77